createdAt,value
2023-05-20T00:00:46.049Z,18.82
2023-05-20T00:01:46.107Z,18.83
2023-05-20T00:02:46.256Z,18.83
2023-05-20T00:03:46.350Z,18.82
2023-05-20T00:04:46.269Z,18.79
2023-05-20T00:05:46.323Z,18.77
2023-05-20T00:06:46.394Z,18.73
2023-05-20T00:07:46.442Z,18.72
2023-05-20T00:08:46.484Z,18.75
2023-05-20T00:09:46.482Z,18.72
2023-05-20T00:10:46.473Z,18.69
2023-05-20T00:11:46.465Z,18.73
2023-05-20T00:12:46.477Z,18.73
2023-05-20T00:13:46.500Z,18.70
2023-05-20T00:14:46.511Z,18.70
2023-05-20T00:15:46.504Z,18.66
2023-05-20T00:16:46.532Z,18.63
2023-05-20T00:17:46.534Z,18.59
2023-05-20T00:18:46.617Z,18.62
2023-05-20T00:19:46.598Z,18.56
2023-05-20T00:20:46.616Z,18.58
2023-05-20T00:21:46.621Z,18.51
2023-05-20T00:22:46.633Z,18.51
2023-05-20T00:23:46.652Z,18.48
2023-05-20T00:24:46.701Z,18.47
2023-05-20T00:25:46.693Z,18.44
2023-05-20T00:26:46.703Z,18.45
2023-05-20T00:27:46.721Z,18.42
2023-05-20T00:28:46.752Z,18.47
2023-05-20T00:29:46.773Z,18.44
2023-05-20T00:30:46.760Z,18.44
2023-05-20T00:31:46.859Z,18.41
2023-05-20T00:32:46.827Z,18.42
2023-05-20T00:33:46.866Z,18.39
2023-05-20T00:34:46.847Z,18.38
2023-05-20T00:35:46.838Z,18.37
2023-05-20T00:36:46.868Z,18.34
2023-05-20T00:37:46.876Z,18.31
2023-05-20T00:38:46.917Z,18.29
2023-05-20T00:39:46.923Z,18.28
2023-05-20T00:40:46.942Z,18.27
2023-05-20T00:41:46.955Z,18.28
2023-05-20T00:42:46.971Z,18.21
2023-05-20T00:43:46.981Z,18.21
2023-05-20T00:44:47.013Z,18.21
2023-05-20T00:45:47.048Z,18.19
2023-05-20T00:46:47.027Z,18.18
2023-05-20T00:47:47.053Z,18.15
2023-05-20T00:48:47.039Z,18.15
2023-05-20T00:49:50.216Z,18.11
2023-05-20T00:50:47.063Z,18.15
2023-05-20T00:51:47.043Z,18.11
2023-05-20T00:52:47.032Z,18.10
2023-05-20T00:53:47.030Z,18.08
2023-05-20T00:54:47.010Z,18.07
2023-05-20T00:55:47.005Z,18.05
2023-05-20T00:56:47.005Z,18.07
2023-05-20T00:57:47.010Z,18.08
2023-05-20T00:58:47.017Z,18.08
2023-05-20T00:59:46.979Z,18.11
2023-05-20T01:00:46.983Z,18.10
2023-05-20T01:01:47.024Z,18.12
2023-05-20T01:02:46.990Z,18.11
2023-05-20T01:03:47.012Z,18.15
2023-05-20T01:04:46.942Z,18.17
2023-05-20T01:05:46.946Z,18.15
2023-05-20T01:06:46.939Z,18.17
2023-05-20T01:07:46.941Z,18.15
2023-05-20T01:08:46.921Z,18.17
2023-05-20T01:09:46.919Z,18.18
2023-05-20T01:10:46.912Z,18.21
2023-05-20T01:11:46.893Z,18.18
2023-05-20T01:12:46.889Z,18.17
2023-05-20T01:13:46.899Z,18.19
2023-05-20T01:14:46.894Z,18.19
2023-05-20T01:15:48.359Z,18.18
2023-05-20T01:16:46.843Z,18.18
2023-05-20T01:17:46.903Z,18.18
2023-05-20T01:18:46.895Z,18.17
2023-05-20T01:19:46.839Z,18.15
2023-05-20T01:20:46.843Z,18.17
2023-05-20T01:21:46.828Z,18.12
2023-05-20T01:22:46.811Z,18.14
2023-05-20T01:23:46.810Z,18.08
2023-05-20T01:24:46.796Z,18.10
2023-05-20T01:25:46.815Z,18.05
2023-05-20T01:26:46.791Z,18.03
2023-05-20T01:27:46.780Z,18.01
2023-05-20T01:28:46.791Z,18.01
2023-05-20T01:29:46.792Z,17.98
2023-05-20T01:30:46.768Z,17.97
2023-05-20T01:31:46.844Z,18.00
2023-05-20T01:32:46.792Z,17.98
2023-05-20T01:33:46.750Z,17.97
2023-05-20T01:34:46.752Z,17.96
2023-05-20T01:35:46.732Z,17.94
2023-05-20T01:36:46.722Z,17.94
2023-05-20T01:37:46.729Z,17.90
2023-05-20T01:38:46.716Z,17.91
2023-05-20T01:39:46.711Z,17.88
2023-05-20T01:40:46.676Z,17.88
2023-05-20T01:41:46.700Z,17.88
2023-05-20T01:42:46.726Z,17.84
2023-05-20T01:43:46.680Z,17.84
2023-05-20T01:44:46.671Z,17.84
2023-05-20T01:45:46.669Z,17.87
2023-05-20T01:46:46.731Z,17.90
2023-05-20T01:47:46.726Z,17.88
2023-05-20T01:48:46.657Z,17.88
2023-05-20T01:49:46.621Z,17.88
2023-05-20T01:50:46.632Z,17.91
2023-05-20T01:51:46.607Z,17.91
2023-05-20T01:52:46.649Z,17.93
2023-05-20T01:53:46.602Z,17.91
2023-05-20T01:54:46.609Z,17.91
2023-05-20T01:55:46.603Z,17.88
2023-05-20T01:56:46.601Z,17.88
2023-05-20T01:57:46.588Z,17.88
2023-05-20T01:58:46.604Z,17.88
2023-05-20T01:59:46.569Z,17.88
2023-05-20T02:00:46.620Z,17.86
2023-05-20T02:01:46.599Z,17.87
2023-05-20T02:02:46.636Z,17.86
2023-05-20T02:03:46.615Z,17.84
2023-05-20T02:04:46.632Z,17.87
2023-05-20T02:05:46.672Z,17.83
2023-05-20T02:06:46.634Z,17.84
2023-05-20T02:07:46.646Z,17.81
2023-05-20T02:08:46.633Z,17.84
2023-05-20T02:09:46.685Z,17.86
2023-05-20T02:10:46.690Z,17.84
2023-05-20T02:11:46.718Z,17.87
2023-05-20T02:12:46.729Z,17.86
2023-05-20T02:13:46.732Z,17.86
2023-05-20T02:14:46.834Z,17.83
2023-05-20T02:15:46.735Z,17.79
2023-05-20T02:16:46.850Z,17.79
2023-05-20T02:17:46.885Z,17.76
2023-05-20T02:18:46.821Z,17.77
2023-05-20T02:19:46.807Z,17.77
2023-05-20T02:20:46.812Z,17.74
2023-05-20T02:21:46.804Z,17.74
2023-05-20T02:22:46.842Z,17.74
2023-05-20T02:23:46.830Z,17.70
2023-05-20T02:24:46.877Z,17.73
2023-05-20T02:25:46.863Z,17.69
2023-05-20T02:26:46.915Z,17.70
2023-05-20T02:27:46.884Z,17.72
2023-05-20T02:28:46.938Z,17.70
2023-05-20T02:29:46.921Z,17.72
2023-05-20T02:30:46.907Z,17.72
2023-05-20T02:31:46.941Z,17.69
2023-05-20T02:32:46.988Z,17.67
2023-05-20T02:33:46.995Z,17.65
2023-05-20T02:34:46.996Z,17.65
2023-05-20T02:35:47.002Z,17.63
2023-05-20T02:36:47.035Z,17.60
2023-05-20T02:37:47.047Z,17.62
2023-05-20T02:38:47.059Z,17.60
2023-05-20T02:39:47.072Z,17.62
2023-05-20T02:40:47.102Z,17.63
2023-05-20T02:41:47.100Z,17.63
2023-05-20T02:42:47.103Z,17.65
2023-05-20T02:43:47.138Z,17.66
2023-05-20T02:44:47.133Z,17.63
2023-05-20T02:45:47.182Z,17.65
2023-05-20T02:46:47.183Z,17.66
2023-05-20T02:47:47.199Z,17.65
2023-05-20T02:48:47.181Z,17.66
2023-05-20T02:49:47.204Z,17.66
2023-05-20T02:50:47.212Z,17.66
2023-05-20T02:51:47.237Z,17.67
2023-05-20T02:52:47.228Z,17.67
2023-05-20T02:53:47.228Z,17.69
2023-05-20T02:54:47.240Z,17.69
2023-05-20T02:55:47.265Z,17.67
2023-05-20T02:56:47.255Z,17.67
2023-05-20T02:57:47.274Z,17.66
2023-05-20T02:58:47.312Z,17.65
2023-05-20T02:59:47.335Z,17.63
2023-05-20T03:00:47.336Z,17.62
2023-05-20T03:01:47.392Z,17.63
2023-05-20T03:02:47.401Z,17.63
2023-05-20T03:03:47.381Z,17.66
2023-05-20T03:04:47.512Z,17.66
2023-05-20T03:05:47.416Z,17.67
2023-05-20T03:06:47.444Z,17.66
2023-05-20T03:07:47.462Z,17.66
2023-05-20T03:08:47.526Z,17.67
2023-05-20T03:09:47.529Z,17.67
2023-05-20T03:10:47.557Z,17.67
2023-05-20T03:11:47.600Z,17.70
2023-05-20T03:12:47.638Z,17.69
2023-05-20T03:13:47.650Z,17.72
2023-05-20T03:14:47.662Z,17.67
2023-05-20T03:15:47.763Z,17.69
2023-05-20T03:16:47.727Z,17.67
2023-05-20T03:17:47.807Z,17.69
2023-05-20T03:18:47.869Z,17.66
2023-05-20T03:19:47.783Z,17.65
2023-05-20T03:20:47.799Z,17.66
2023-05-20T03:21:47.839Z,17.63
2023-05-20T03:22:47.846Z,17.63
2023-05-20T03:23:47.875Z,17.65
2023-05-20T03:24:47.885Z,17.60
2023-05-20T03:25:47.931Z,17.59
2023-05-20T03:26:47.953Z,17.59
2023-05-20T03:27:47.981Z,17.59
2023-05-20T03:28:48.062Z,17.57
2023-05-20T03:29:48.048Z,17.57
2023-05-20T03:30:48.066Z,17.54
2023-05-20T03:31:48.181Z,17.53
2023-05-20T03:32:48.215Z,17.52
2023-05-20T03:33:48.164Z,17.50
2023-05-20T03:34:48.181Z,17.52
2023-05-20T03:35:48.242Z,17.48
2023-05-20T03:36:48.267Z,17.50
2023-05-20T03:37:48.294Z,17.48
2023-05-20T03:38:48.342Z,17.50
2023-05-20T03:39:48.369Z,17.49
2023-05-20T03:40:48.382Z,17.43
2023-05-20T03:41:48.430Z,17.50
2023-05-20T03:42:48.490Z,17.49
2023-05-20T03:43:48.529Z,17.49
2023-05-20T03:44:48.562Z,17.50
2023-05-20T03:45:48.565Z,17.50
2023-05-20T03:46:48.621Z,17.50
2023-05-20T03:47:48.732Z,17.50
2023-05-20T03:48:48.669Z,17.52
2023-05-20T03:49:48.710Z,17.52
2023-05-20T03:50:48.732Z,17.53
2023-05-20T03:51:48.752Z,17.52
2023-05-20T03:52:48.813Z,17.52
2023-05-20T03:53:48.849Z,17.53
2023-05-20T03:54:48.868Z,17.52
2023-05-20T03:55:48.913Z,17.52
2023-05-20T03:56:48.979Z,17.53
2023-05-20T03:57:49.049Z,17.50
2023-05-20T03:58:49.033Z,17.49
2023-05-20T03:59:49.078Z,17.48
2023-05-20T04:00:49.118Z,17.46
2023-05-20T04:01:49.247Z,17.46
2023-05-20T04:02:49.320Z,17.46
2023-05-20T04:03:49.362Z,17.45
2023-05-20T04:04:49.316Z,17.45
2023-05-20T04:05:49.357Z,17.43
2023-05-20T04:06:49.414Z,17.45
2023-05-20T04:07:49.446Z,17.46
2023-05-20T04:08:49.514Z,17.46
2023-05-20T04:09:49.546Z,17.50
2023-05-20T04:10:49.606Z,17.49
2023-05-20T04:11:49.643Z,17.48
2023-05-20T04:12:49.754Z,17.48
2023-05-20T04:13:49.761Z,17.48
2023-05-20T04:14:49.817Z,17.53
2023-05-20T04:15:49.839Z,17.53
2023-05-20T04:16:49.947Z,17.56
2023-05-20T04:17:49.988Z,17.56
2023-05-20T04:18:50.053Z,17.56
2023-05-20T04:19:50.011Z,17.53
2023-05-20T04:20:50.078Z,17.56
2023-05-20T04:21:50.091Z,17.54
2023-05-20T04:22:50.154Z,17.53
2023-05-20T04:23:50.174Z,17.57
2023-05-20T04:24:50.190Z,17.57
2023-05-20T04:25:50.219Z,17.59
2023-05-20T04:26:50.286Z,17.60
2023-05-20T04:27:50.280Z,17.59
2023-05-20T04:28:50.317Z,17.57
2023-05-20T04:29:50.340Z,17.59
2023-05-20T04:30:50.348Z,17.56
2023-05-20T04:31:50.386Z,17.56
2023-05-20T04:32:50.452Z,17.52
2023-05-20T04:33:50.448Z,17.49
2023-05-20T04:34:50.472Z,17.48
2023-05-20T04:35:50.534Z,17.49
2023-05-20T04:36:50.571Z,17.46
2023-05-20T04:37:50.618Z,17.46
2023-05-20T04:38:50.664Z,17.45
2023-05-20T04:39:50.704Z,17.43
2023-05-20T04:40:50.750Z,17.42
2023-05-20T04:41:50.808Z,17.43
2023-05-20T04:42:50.852Z,17.40
2023-05-20T04:43:50.877Z,17.42
2023-05-20T04:44:50.940Z,17.40
2023-05-20T04:45:51.026Z,17.40
2023-05-20T04:46:51.040Z,17.39
2023-05-20T04:47:51.149Z,17.39
2023-05-20T04:48:51.120Z,17.42
2023-05-20T04:49:51.188Z,17.40
2023-05-20T04:50:51.157Z,17.38
2023-05-20T04:51:51.183Z,17.38
2023-05-20T04:52:51.229Z,17.36
2023-05-20T04:53:51.237Z,17.40
2023-05-20T04:54:51.264Z,17.38
2023-05-20T04:55:51.315Z,17.42
2023-05-20T04:56:51.360Z,17.40
2023-05-20T04:57:51.446Z,17.40
2023-05-20T04:58:51.496Z,17.40
2023-05-20T04:59:51.534Z,17.40
2023-05-20T05:00:51.589Z,17.42
2023-05-20T05:01:51.728Z,17.42
2023-05-20T05:02:51.755Z,17.42
2023-05-20T05:03:51.704Z,17.45
2023-05-20T05:04:51.805Z,17.49
2023-05-20T05:05:51.781Z,17.52
2023-05-20T05:06:51.789Z,17.53
2023-05-20T05:07:51.811Z,17.56
2023-05-20T05:08:51.813Z,17.54
2023-05-20T05:09:51.818Z,17.57
2023-05-20T05:10:51.826Z,17.59
2023-05-20T05:11:51.833Z,17.62
2023-05-20T05:12:51.870Z,17.65
2023-05-20T05:13:51.892Z,17.69
2023-05-20T05:14:51.864Z,17.70
2023-05-20T05:15:51.929Z,17.70
2023-05-20T05:16:54.070Z,17.72
2023-05-20T05:17:51.906Z,17.77
2023-05-20T05:18:51.936Z,17.73
2023-05-20T05:19:51.888Z,17.74
2023-05-20T05:20:51.857Z,17.74
2023-05-20T05:21:51.870Z,17.79
2023-05-20T05:22:51.873Z,17.79
2023-05-20T05:23:51.848Z,17.83
2023-05-20T05:24:51.873Z,17.84
2023-05-20T05:25:51.854Z,17.86
2023-05-20T05:26:51.839Z,17.84
2023-05-20T05:27:51.840Z,17.83
2023-05-20T05:28:51.826Z,17.88
2023-05-20T05:29:51.804Z,17.88
2023-05-20T05:30:51.808Z,17.88
2023-05-20T05:31:51.815Z,17.94
2023-05-20T05:32:51.915Z,17.91
2023-05-20T05:33:51.785Z,17.94
2023-05-20T05:34:51.782Z,17.94
2023-05-20T05:35:51.773Z,17.98
2023-05-20T05:36:51.761Z,17.98
2023-05-20T05:37:51.753Z,18.01
2023-05-20T05:38:51.753Z,18.01
2023-05-20T05:39:51.730Z,18.05
2023-05-20T05:40:51.729Z,18.07
2023-05-20T05:41:51.721Z,18.14
2023-05-20T05:42:51.722Z,18.18
2023-05-20T05:43:51.716Z,18.21
2023-05-20T05:44:51.686Z,18.24
2023-05-20T05:45:51.684Z,18.24
2023-05-20T05:46:51.759Z,18.27
2023-05-20T05:47:51.704Z,18.31
2023-05-20T05:48:51.664Z,18.34
2023-05-20T05:49:51.665Z,18.38
2023-05-20T05:50:51.654Z,18.38
2023-05-20T05:51:51.650Z,18.38
2023-05-20T05:52:51.661Z,18.44
2023-05-20T05:53:51.626Z,18.45
2023-05-20T05:54:51.620Z,18.49
2023-05-20T05:55:51.604Z,18.47
2023-05-20T05:56:51.628Z,18.51
2023-05-20T05:57:51.583Z,18.38
2023-05-20T05:58:51.612Z,18.44
2023-05-20T05:59:51.593Z,18.51
2023-05-20T06:00:51.650Z,18.52
2023-05-20T06:01:51.634Z,18.51
2023-05-20T06:02:51.705Z,18.55
2023-05-20T06:03:51.645Z,18.54
2023-05-20T06:04:51.533Z,18.58
2023-05-20T06:05:51.544Z,18.58
2023-05-20T06:06:51.566Z,18.62
2023-05-20T06:07:51.532Z,18.62
2023-05-20T06:08:51.530Z,18.56
2023-05-20T06:09:51.515Z,18.60
2023-05-20T06:10:51.492Z,18.65
2023-05-20T06:11:51.508Z,18.68
2023-05-20T06:12:51.476Z,18.70
2023-05-20T06:13:51.493Z,18.75
2023-05-20T06:14:51.488Z,18.76
2023-05-20T06:15:51.476Z,18.73
2023-05-20T06:16:51.517Z,18.72
2023-05-20T06:17:51.491Z,18.76
2023-05-20T06:18:51.533Z,18.80
2023-05-20T06:19:51.447Z,18.87
2023-05-20T06:20:51.454Z,18.89
2023-05-20T06:21:51.434Z,18.93
2023-05-20T06:22:51.455Z,18.93
2023-05-20T06:23:51.428Z,18.97
2023-05-20T06:24:51.401Z,18.97
2023-05-20T06:25:51.400Z,18.87
2023-05-20T06:26:51.395Z,18.95
2023-05-20T06:27:51.388Z,18.99
2023-05-20T06:28:51.385Z,19.02
2023-05-20T06:29:51.388Z,19.03
2023-05-20T06:30:51.466Z,19.06
2023-05-20T06:31:51.495Z,19.07
2023-05-20T06:32:51.546Z,19.06
2023-05-20T06:33:51.600Z,19.02
2023-05-20T06:34:51.644Z,19.00
2023-05-20T06:35:51.732Z,19.06
2023-05-20T06:36:51.760Z,19.10
2023-05-20T06:37:51.820Z,19.13
2023-05-20T06:38:51.852Z,19.16
2023-05-20T06:39:51.924Z,19.23
2023-05-20T06:40:51.937Z,19.30
2023-05-20T06:41:52.002Z,19.31
2023-05-20T06:42:52.032Z,19.30
2023-05-20T06:43:53.424Z,19.33
2023-05-20T06:44:52.127Z,19.37
2023-05-20T06:45:52.163Z,19.35
2023-05-20T06:46:52.249Z,19.41
2023-05-20T06:47:52.276Z,19.44
2023-05-20T06:48:52.241Z,19.45
2023-05-20T06:49:52.265Z,19.45
2023-05-20T06:50:52.278Z,19.39
2023-05-20T06:51:52.389Z,19.44
2023-05-20T06:52:52.356Z,19.50
2023-05-20T06:53:52.421Z,19.53
2023-05-20T06:54:52.407Z,19.51
2023-05-20T06:55:52.397Z,19.53
2023-05-20T06:56:52.409Z,19.55
2023-05-20T06:57:52.425Z,19.53
2023-05-20T06:58:52.464Z,19.55
2023-05-20T06:59:52.477Z,19.57
2023-05-20T07:00:52.472Z,19.65
2023-05-20T07:01:52.561Z,19.68
2023-05-20T07:02:52.521Z,19.72
2023-05-20T07:03:52.543Z,19.74
2023-05-20T07:04:52.498Z,19.74
2023-05-20T07:05:52.476Z,19.74
2023-05-20T07:06:52.529Z,19.72
2023-05-20T07:07:52.512Z,19.74
2023-05-20T07:08:52.522Z,19.72
2023-05-20T07:09:52.531Z,19.75
2023-05-20T07:10:52.529Z,19.74
2023-05-20T07:11:52.532Z,19.76
2023-05-20T07:12:52.533Z,19.82
2023-05-20T07:13:52.533Z,19.88
2023-05-20T07:14:52.550Z,19.93
2023-05-20T07:15:52.616Z,19.91
2023-05-20T07:16:52.634Z,19.86
2023-05-20T07:17:52.724Z,19.89
2023-05-20T07:18:52.811Z,19.86
2023-05-20T07:19:52.804Z,19.88
2023-05-20T07:20:52.848Z,19.89
2023-05-20T07:21:52.851Z,19.86
2023-05-20T07:22:52.864Z,19.92
2023-05-20T07:23:52.863Z,19.97
2023-05-20T07:24:52.887Z,19.97
2023-05-20T07:25:52.916Z,20.02
2023-05-20T07:26:52.924Z,20.08
2023-05-20T07:27:52.988Z,20.15
2023-05-20T07:28:53.062Z,20.19
2023-05-20T07:29:53.113Z,20.26
2023-05-20T07:30:55.412Z,20.29
2023-05-20T07:31:53.153Z,20.16
2023-05-20T07:32:53.256Z,20.19
2023-05-20T07:33:53.137Z,20.20
2023-05-20T07:34:53.115Z,19.72
2023-05-20T07:35:53.114Z,19.88
2023-05-20T07:36:53.116Z,19.99
2023-05-20T07:37:53.089Z,20.09
2023-05-20T07:39:01.470Z,20.16
2023-05-20T07:39:54.093Z,20.20
2023-05-20T07:40:53.079Z,20.32
2023-05-20T07:41:53.098Z,20.33
2023-05-20T07:42:53.050Z,20.37
2023-05-20T07:43:53.055Z,20.30
2023-05-20T07:44:53.056Z,20.36
2023-05-20T07:45:53.059Z,20.09
2023-05-20T07:46:53.049Z,20.29
2023-05-20T07:47:53.034Z,20.42
2023-05-20T07:48:53.057Z,20.50
2023-05-20T07:49:53.025Z,20.56
2023-05-20T07:50:53.033Z,20.50
2023-05-20T07:51:53.018Z,20.48
2023-05-20T07:52:56.570Z,20.36
2023-05-20T07:53:53.008Z,20.53
2023-05-20T07:54:53.008Z,20.57
2023-05-20T07:55:52.987Z,20.50
2023-05-20T07:56:52.996Z,20.58
2023-05-20T07:57:52.957Z,20.62
2023-05-20T07:58:52.968Z,20.66
2023-05-20T07:59:52.944Z,20.71
2023-05-20T08:00:52.955Z,20.74
2023-05-20T08:01:52.947Z,20.77
2023-05-20T08:02:53.195Z,20.80
2023-05-20T08:03:53.100Z,20.68
2023-05-20T08:04:52.931Z,20.74
2023-05-20T08:05:52.926Z,20.78
2023-05-20T08:06:52.907Z,20.83
2023-05-20T08:07:52.893Z,20.93
2023-05-20T08:08:52.882Z,20.97
2023-05-20T08:09:52.872Z,20.99
2023-05-20T08:10:52.888Z,21.08
2023-05-20T08:11:52.882Z,21.14
2023-05-20T08:12:52.866Z,21.18
2023-05-20T08:13:52.865Z,21.21
2023-05-20T08:14:52.858Z,21.18
2023-05-20T08:15:52.840Z,21.21
2023-05-20T08:16:54.617Z,21.05
2023-05-20T08:17:52.868Z,21.09
2023-05-20T08:18:52.850Z,21.09
2023-05-20T08:19:52.805Z,20.98
2023-05-20T08:20:52.804Z,21.12
2023-05-20T08:21:52.832Z,21.15
2023-05-20T08:22:52.883Z,21.16
2023-05-20T08:23:52.952Z,21.18
2023-05-20T08:24:52.999Z,21.18
2023-05-20T08:25:53.035Z,21.25
2023-05-20T08:26:53.091Z,21.26
2023-05-20T08:27:53.138Z,21.31
2023-05-20T08:28:53.204Z,21.35
2023-05-20T08:29:53.245Z,21.39
2023-05-20T08:30:53.327Z,21.45
2023-05-20T08:31:53.349Z,20.46
2023-05-20T08:32:53.428Z,20.97
2023-05-20T08:33:53.467Z,21.06
2023-05-20T08:34:53.501Z,21.09
2023-05-20T08:35:53.548Z,21.22
2023-05-20T08:36:53.562Z,21.29
2023-05-20T08:37:53.628Z,21.28
2023-05-20T08:38:53.646Z,21.36
2023-05-20T08:39:53.648Z,21.46
2023-05-20T08:40:53.670Z,21.39
2023-05-20T08:41:53.737Z,21.14
2023-05-20T08:42:53.760Z,21.05
2023-05-20T08:43:53.751Z,21.21
2023-05-20T08:44:53.759Z,21.26
2023-05-20T08:45:53.785Z,21.35
2023-05-20T08:46:53.805Z,21.43
2023-05-20T08:47:53.911Z,21.42
2023-05-20T08:48:53.925Z,21.18
2023-05-20T08:49:53.963Z,21.23
2023-05-20T08:50:54.022Z,21.36
2023-05-20T08:51:54.055Z,21.42
2023-05-20T08:52:54.102Z,21.52
2023-05-20T08:53:54.223Z,21.56
2023-05-20T08:54:54.236Z,21.60
2023-05-20T08:55:54.270Z,21.64
2023-05-20T08:56:54.328Z,21.72
2023-05-20T08:57:54.341Z,21.73
2023-05-20T08:58:54.321Z,21.80
2023-05-20T08:59:54.333Z,21.83
2023-05-20T09:00:54.363Z,21.87
2023-05-20T09:01:54.343Z,21.84
2023-05-20T09:02:54.401Z,21.89
2023-05-20T09:03:54.435Z,21.74
2023-05-20T09:04:54.440Z,21.80
2023-05-20T09:05:54.436Z,21.80
2023-05-20T09:06:54.401Z,21.36
2023-05-20T09:07:54.454Z,21.57
2023-05-20T09:08:54.547Z,21.70
2023-05-20T09:09:54.585Z,21.77
2023-05-20T09:10:54.689Z,21.73
2023-05-20T09:11:54.723Z,21.43
2023-05-20T09:12:54.756Z,21.54
2023-05-20T09:13:54.819Z,21.59
2023-05-20T09:14:54.876Z,21.70
2023-05-20T09:15:54.943Z,21.73
2023-05-20T09:16:54.974Z,21.76
2023-05-20T09:17:55.119Z,21.90
2023-05-20T09:18:55.081Z,21.99
2023-05-20T09:19:55.088Z,22.08
2023-05-20T09:20:55.153Z,22.11
2023-05-20T09:21:55.235Z,22.14
2023-05-20T09:22:55.242Z,22.25
2023-05-20T09:23:55.282Z,22.00
2023-05-20T09:24:55.299Z,22.17
2023-05-20T09:25:55.327Z,22.28
2023-05-20T09:26:55.346Z,22.25
2023-05-20T09:27:55.362Z,22.35
2023-05-20T09:28:55.405Z,22.47
2023-05-20T09:29:55.388Z,22.38
2023-05-20T09:30:55.426Z,22.42
2023-05-20T09:31:55.425Z,22.51
2023-05-20T09:32:55.468Z,22.38
2023-05-20T09:33:55.428Z,22.40
2023-05-20T09:34:55.431Z,22.35
2023-05-20T09:35:55.451Z,22.37
2023-05-20T09:36:55.430Z,22.52
2023-05-20T09:37:55.454Z,22.55
2023-05-20T09:38:55.488Z,22.55
2023-05-20T09:39:55.447Z,22.14
2023-05-20T09:40:55.462Z,22.44
2023-05-20T09:41:55.479Z,22.20
2023-05-20T09:42:55.484Z,22.42
2023-05-20T09:43:55.516Z,22.56
2023-05-20T09:44:55.504Z,22.63
2023-05-20T09:45:55.578Z,22.71
2023-05-20T09:46:55.527Z,22.73
2023-05-20T09:47:55.535Z,22.58
2023-05-20T09:48:55.697Z,22.45
2023-05-20T09:49:55.569Z,22.41
2023-05-20T09:50:55.571Z,22.56
2023-05-20T09:51:55.595Z,22.66
2023-05-20T09:52:55.578Z,22.69
2023-05-20T09:53:55.589Z,22.75
2023-05-20T09:54:55.607Z,22.54
2023-05-20T09:55:55.611Z,22.71
2023-05-20T09:56:55.648Z,22.80
2023-05-20T09:57:55.669Z,22.86
2023-05-20T09:58:55.709Z,22.93
2023-05-20T09:59:55.734Z,22.98
2023-05-20T10:00:55.788Z,23.05
2023-05-20T10:01:55.968Z,22.85
2023-05-20T10:02:56.001Z,22.47
2023-05-20T10:03:56.033Z,22.71
2023-05-20T10:04:56.032Z,22.76
2023-05-20T10:05:56.070Z,22.89
2023-05-20T10:06:56.106Z,22.92
2023-05-20T10:07:56.134Z,22.96
2023-05-20T10:08:57.332Z,22.92
2023-05-20T10:09:56.175Z,23.05
2023-05-20T10:10:56.210Z,23.09
2023-05-20T10:11:56.263Z,22.95
2023-05-20T10:12:56.299Z,22.55
2023-05-20T10:13:56.339Z,22.52
2023-05-20T10:14:56.412Z,22.76
2023-05-20T10:15:56.472Z,22.79
2023-05-20T10:16:56.472Z,22.65
2023-05-20T10:17:56.576Z,22.83
2023-05-20T10:18:56.695Z,22.99
2023-05-20T10:19:56.636Z,23.09
2023-05-20T10:20:56.682Z,23.06
2023-05-20T10:21:56.710Z,23.19
2023-05-20T10:22:56.736Z,23.27
2023-05-20T10:23:56.779Z,23.34
2023-05-20T10:24:56.781Z,23.36
2023-05-20T10:25:56.828Z,23.29
2023-05-20T10:26:56.863Z,23.24
2023-05-20T10:27:56.899Z,23.31
2023-05-20T10:28:56.907Z,23.36
2023-05-20T10:29:56.934Z,23.37
2023-05-20T10:30:56.981Z,23.00
2023-05-20T10:31:57.063Z,23.13
2023-05-20T10:32:57.376Z,23.23
2023-05-20T10:33:57.073Z,23.26
2023-05-20T10:34:57.060Z,23.23
2023-05-20T10:35:57.077Z,23.16
2023-05-20T10:36:57.085Z,23.27
2023-05-20T10:37:57.104Z,23.31
2023-05-20T10:38:57.097Z,23.30
2023-05-20T10:39:57.096Z,23.29
2023-05-20T10:40:57.148Z,23.33
2023-05-20T10:41:57.208Z,23.40
2023-05-20T10:42:57.245Z,23.47
2023-05-20T10:43:57.301Z,23.40
2023-05-20T10:44:57.333Z,23.51
2023-05-20T10:45:57.408Z,23.58
2023-05-20T10:47:16.955Z,23.68
2023-05-20T10:47:58.511Z,23.65
2023-05-20T10:48:57.639Z,23.67
2023-05-20T10:49:57.420Z,23.78
2023-05-20T10:50:57.415Z,23.79
2023-05-20T10:51:57.391Z,23.89
2023-05-20T10:52:57.380Z,23.89
2023-05-20T10:53:57.376Z,23.99
2023-05-20T10:54:57.411Z,24.08
2023-05-20T10:55:57.385Z,24.11
2023-05-20T10:56:57.361Z,24.13
2023-05-20T10:57:57.386Z,24.13
2023-05-20T10:58:57.361Z,24.08
2023-05-20T10:59:57.347Z,24.11
2023-05-20T11:00:57.355Z,24.11
2023-05-20T11:01:57.330Z,24.22
2023-05-20T11:02:57.407Z,24.22
2023-05-20T11:03:57.497Z,24.28
2023-05-20T11:04:57.316Z,24.40
2023-05-20T11:05:57.301Z,24.39
2023-05-20T11:06:57.312Z,24.43
2023-05-20T11:07:57.316Z,24.42
2023-05-20T11:08:57.298Z,24.49
2023-05-20T11:09:57.312Z,24.52
2023-05-20T11:10:57.340Z,24.57
2023-05-20T11:11:57.344Z,24.64
2023-05-20T11:12:57.429Z,24.67
2023-05-20T11:13:57.448Z,24.68
2023-05-20T11:14:57.488Z,24.60
2023-05-20T11:15:57.546Z,24.56
2023-05-20T11:16:57.605Z,24.71
2023-05-20T11:17:57.630Z,24.62
2023-05-20T11:18:57.655Z,24.64
2023-05-20T11:19:57.681Z,24.57
2023-05-20T11:20:57.717Z,24.66
2023-05-20T11:21:57.759Z,24.68
2023-05-20T11:22:57.787Z,24.57
2023-05-20T11:23:57.875Z,24.73
2023-05-20T11:24:57.947Z,24.77
2023-05-20T11:25:57.954Z,24.71
2023-05-20T11:26:57.980Z,24.86
2023-05-20T11:27:58.048Z,24.90
2023-05-20T11:28:59.409Z,24.95
2023-05-20T11:29:58.349Z,24.93
2023-05-20T11:30:58.401Z,24.90
2023-05-20T11:31:58.533Z,24.87
2023-05-20T11:32:58.575Z,24.88
2023-05-20T11:33:58.558Z,24.91
2023-05-20T11:34:58.625Z,24.78
2023-05-20T11:35:58.649Z,24.66
2023-05-20T11:36:58.865Z,24.77
2023-05-20T11:37:58.780Z,24.77
2023-05-20T11:38:58.816Z,24.78
2023-05-20T11:39:58.869Z,24.66
2023-05-20T11:40:59.103Z,24.76
2023-05-20T11:41:58.949Z,24.81
2023-05-20T11:42:58.991Z,24.87
2023-05-20T11:43:59.057Z,24.84
2023-05-20T11:44:59.472Z,24.50
2023-05-20T11:45:59.332Z,24.73
2023-05-20T11:46:59.204Z,24.78
2023-05-20T11:47:59.303Z,24.86
2023-05-20T11:48:59.339Z,24.88
2023-05-20T11:49:59.392Z,24.80
2023-05-20T11:51:01.918Z,24.84
2023-05-20T11:51:59.417Z,24.80
2023-05-20T11:52:59.396Z,24.90
2023-05-20T11:53:59.411Z,24.94
2023-05-20T11:54:59.391Z,25.04
2023-05-20T11:55:59.385Z,25.08
2023-05-20T11:56:59.384Z,24.99
2023-05-20T11:57:59.379Z,25.08
2023-05-20T11:58:59.393Z,25.17
2023-05-20T11:59:59.365Z,24.99
2023-05-20T12:01:59.339Z,25.10
2023-05-20T12:02:59.426Z,25.13
2023-05-20T12:03:59.514Z,25.22
2023-05-20T12:04:59.438Z,25.25
2023-05-20T12:05:59.329Z,25.24
2023-05-20T12:06:59.329Z,25.21
2023-05-20T12:07:59.323Z,25.19
2023-05-20T12:08:59.315Z,25.25
2023-05-20T12:09:59.302Z,25.19
2023-05-20T12:10:59.310Z,25.18
2023-05-20T12:11:59.290Z,24.99
2023-05-20T12:12:59.291Z,25.11
2023-05-20T12:13:59.282Z,25.07
2023-05-20T12:14:59.282Z,25.13
2023-05-20T12:15:59.342Z,25.13
2023-05-20T12:16:59.257Z,25.18
2023-05-20T12:17:59.301Z,25.13
2023-05-20T12:18:59.292Z,25.22
2023-05-20T12:19:59.256Z,25.25
2023-05-20T12:20:59.243Z,25.11
2023-05-20T12:21:59.245Z,25.29
2023-05-20T12:22:59.219Z,25.36
2023-05-20T12:23:59.212Z,25.31
2023-05-20T12:24:59.217Z,25.31
2023-05-20T12:25:59.206Z,25.34
2023-05-20T12:26:59.201Z,25.39
2023-05-20T12:27:59.199Z,25.41
2023-05-20T12:28:59.193Z,25.55
2023-05-20T12:29:59.193Z,25.53
2023-05-20T12:30:59.156Z,25.62
2023-05-20T12:31:59.259Z,25.63
2023-05-20T12:32:59.163Z,25.68
2023-05-20T12:33:59.134Z,25.66
2023-05-20T12:34:59.147Z,25.69
2023-05-20T12:35:59.124Z,25.66
2023-05-20T12:36:59.119Z,25.77
2023-05-20T12:37:59.105Z,25.75
2023-05-20T12:38:59.114Z,25.79
2023-05-20T12:39:59.119Z,25.80
2023-05-20T12:40:59.082Z,25.70
2023-05-20T12:41:59.118Z,25.76
2023-05-20T12:42:59.091Z,25.70
2023-05-20T12:43:59.096Z,25.79
2023-05-20T12:44:59.069Z,25.83
2023-05-20T12:45:59.080Z,25.87
2023-05-20T12:46:59.097Z,25.96
2023-05-20T12:47:59.096Z,25.92
2023-05-20T12:48:59.108Z,25.93
2023-05-20T12:49:59.051Z,26.00
2023-05-20T12:50:59.076Z,25.99
2023-05-20T12:52:01.465Z,25.89
2023-05-20T12:52:59.114Z,26.08
2023-05-20T12:53:59.164Z,25.87